sensor_id;sensor_type;location;lat;lon;timestamp;P1;durP1;ratioP1;P2;durP2;ratioP2
11761;SDS011;5938;47.098;15.474;2022-07-23T00:01:01;12.80;;;11.70;;
11761;SDS011;5938;47.098;15.474;2022-07-23T00:05:07;12.90;;;11.80;;
11761;SDS011;5938;47.098;15.474;2022-07-23T00:09:11;13.33;;;12.23;;
11761;SDS011;5938;47.098;15.474;2022-07-23T00:13:27;13.93;;;12.63;;
11761;SDS011;5938;47.098;15.474;2022-07-23T00:17:31;13.43;;;12.10;;
11761;SDS011;5938;47.098;15.474;2022-07-23T00:21:37;14.10;;;12.90;;
11761;SDS011;5938;47.098;15.474;2022-07-23T00:25:40;15.33;;;14.07;;
11761;SDS011;5938;47.098;15.474;2022-07-23T00:29:44;13.93;;;12.67;;
11761;SDS011;5938;47.098;15.474;2022-07-23T00:33:48;14.10;;;12.90;;
11761;SDS011;5938;47.098;15.474;2022-07-23T00:37:54;13.30;;;12.17;;
11761;SDS011;5938;47.098;15.474;2022-07-23T00:41:58;13.43;;;12.13;;
11761;SDS011;5938;47.098;15.474;2022-07-23T00:46:03;13.37;;;12.30;;
11761;SDS011;5938;47.098;15.474;2022-07-23T00:50:07;17.20;;;12.70;;
11761;SDS011;5938;47.098;15.474;2022-07-23T00:54:13;13.67;;;12.57;;
11761;SDS011;5938;47.098;15.474;2022-07-23T00:58:17;13.17;;;12.17;;
11761;SDS011;5938;47.098;15.474;2022-07-23T01:02:21;14.47;;;13.20;;
11761;SDS011;5938;47.098;15.474;2022-07-23T01:06:25;12.67;;;11.47;;
11761;SDS011;5938;47.098;15.474;2022-07-23T01:10:30;12.63;;;11.50;;
11761;SDS011;5938;47.098;15.474;2022-07-23T01:14:34;11.63;;;10.63;;
11761;SDS011;5938;47.098;15.474;2022-07-23T01:18:39;13.70;;;12.53;;
11761;SDS011;5938;47.098;15.474;2022-07-23T01:22:51;13.40;;;12.30;;
11761;SDS011;5938;47.098;15.474;2022-07-23T01:26:56;13.27;;;12.17;;
11761;SDS011;5938;47.098;15.474;2022-07-23T01:31:00;12.07;;;10.87;;
11761;SDS011;5938;47.098;15.474;2022-07-23T01:35:04;13.10;;;11.90;;
11761;SDS011;5938;47.098;15.474;2022-07-23T01:39:10;12.30;;;11.40;;
11761;SDS011;5938;47.098;15.474;2022-07-23T01:43:17;12.97;;;11.70;;
11761;SDS011;5938;47.098;15.474;2022-07-23T01:47:20;12.93;;;11.83;;
11761;SDS011;5938;47.098;15.474;2022-07-23T01:51:25;12.50;;;11.20;;
11761;SDS011;5938;47.098;15.474;2022-07-23T01:55:30;12.47;;;11.37;;
11761;SDS011;5938;47.098;15.474;2022-07-23T01:59:34;13.17;;;12.07;;
11761;SDS011;5938;47.098;15.474;2022-07-23T02:03:38;13.47;;;12.30;;
11761;SDS011;5938;47.098;15.474;2022-07-23T02:07:42;14.27;;;12.93;;
11761;SDS011;5938;47.098;15.474;2022-07-23T02:11:55;12.60;;;11.57;;
11761;SDS011;5938;47.098;15.474;2022-07-23T02:15:59;12.80;;;11.60;;
11761;SDS011;5938;47.098;15.474;2022-07-23T02:20:04;13.17;;;12.07;;
11761;SDS011;5938;47.098;15.474;2022-07-23T02:24:09;12.47;;;11.40;;
11761;SDS011;5938;47.098;15.474;2022-07-23T02:28:14;13.17;;;12.17;;
11761;SDS011;5938;47.098;15.474;2022-07-23T02:32:18;12.90;;;11.80;;
11761;SDS011;5938;47.098;15.474;2022-07-23T02:36:23;13.10;;;12.00;;
11761;SDS011;5938;47.098;15.474;2022-07-23T02:40:27;13.57;;;12.30;;
11761;SDS011;5938;47.098;15.474;2022-07-23T02:44:32;13.33;;;12.03;;
11761;SDS011;5938;47.098;15.474;2022-07-23T02:48:36;13.20;;;12.10;;
11761;SDS011;5938;47.098;15.474;2022-07-23T02:52:40;13.83;;;12.50;;
11761;SDS011;5938;47.098;15.474;2022-07-23T02:56:44;13.07;;;11.97;;
11761;SDS011;5938;47.098;15.474;2022-07-23T03:00:49;13.20;;;12.00;;
11761;SDS011;5938;47.098;15.474;2022-07-23T03:04:53;12.47;;;11.47;;
11761;SDS011;5938;47.098;15.474;2022-07-23T03:08:57;14.70;;;13.37;;
11761;SDS011;5938;47.098;15.474;2022-07-23T03:13:02;13.67;;;12.47;;
11761;SDS011;5938;47.098;15.474;2022-07-23T03:17:08;14.17;;;12.93;;
11761;SDS011;5938;47.098;15.474;2022-07-23T03:21:12;14.23;;;12.93;;
11761;SDS011;5938;47.098;15.474;2022-07-23T03:25:16;13.33;;;12.00;;
11761;SDS011;5938;47.098;15.474;2022-07-23T03:29:20;13.10;;;11.90;;
11761;SDS011;5938;47.098;15.474;2022-07-23T03:33:26;13.67;;;12.47;;
11761;SDS011;5938;47.098;15.474;2022-07-23T03:37:29;13.90;;;12.63;;
11761;SDS011;5938;47.098;15.474;2022-07-23T03:41:34;13.20;;;12.00;;
11761;SDS011;5938;47.098;15.474;2022-07-23T03:45:38;14.47;;;13.23;;
11761;SDS011;5938;47.098;15.474;2022-07-23T03:49:44;13.67;;;12.47;;
11761;SDS011;5938;47.098;15.474;2022-07-23T03:53:48;13.90;;;12.50;;
11761;SDS011;5938;47.098;15.474;2022-07-23T03:57:52;14.13;;;12.70;;
11761;SDS011;5938;47.098;15.474;2022-07-23T04:01:56;14.93;;;13.40;;
11761;SDS011;5938;47.098;15.474;2022-07-23T04:06:02;13.83;;;12.33;;
11761;SDS011;5938;47.098;15.474;2022-07-23T04:10:07;13.63;;;12.50;;
11761;SDS011;5938;47.098;15.474;2022-07-23T04:14:11;14.00;;;12.80;;
11761;SDS011;5938;47.098;15.474;2022-07-23T04:18:15;14.10;;;12.90;;
11761;SDS011;5938;47.098;15.474;2022-07-23T04:22:22;15.97;;;14.57;;
11761;SDS011;5938;47.098;15.474;2022-07-23T04:26:26;15.40;;;13.47;;
11761;SDS011;5938;47.098;15.474;2022-07-23T04:30:32;13.57;;;12.50;;
11761;SDS011;5938;47.098;15.474;2022-07-23T04:34:37;13.70;;;12.50;;
11761;SDS011;5938;47.098;15.474;2022-07-23T04:38:43;14.30;;;13.10;;
11761;SDS011;5938;47.098;15.474;2022-07-23T04:42:53;15.90;;;14.50;;
11761;SDS011;5938;47.098;15.474;2022-07-23T04:46:57;13.63;;;12.53;;
11761;SDS011;5938;47.098;15.474;2022-07-23T04:51:02;13.30;;;12.20;;
11761;SDS011;5938;47.098;15.474;2022-07-23T04:55:20;13.57;;;12.37;;
11761;SDS011;5938;47.098;15.474;2022-07-23T04:59:24;13.20;;;12.10;;
11761;SDS011;5938;47.098;15.474;2022-07-23T05:03:30;13.13;;;12.07;;
11761;SDS011;5938;47.098;15.474;2022-07-23T05:07:37;13.00;;;11.80;;
11761;SDS011;5938;47.098;15.474;2022-07-23T05:11:49;13.47;;;12.27;;
11761;SDS011;5938;47.098;15.474;2022-07-23T05:15:52;14.50;;;13.40;;
11761;SDS011;5938;47.098;15.474;2022-07-23T05:19:56;13.77;;;12.57;;
11761;SDS011;5938;47.098;15.474;2022-07-23T05:24:01;14.30;;;13.10;;
11761;SDS011;5938;47.098;15.474;2022-07-23T05:28:07;14.43;;;13.13;;
11761;SDS011;5938;47.098;15.474;2022-07-23T05:32:12;14.77;;;13.43;;
11761;SDS011;5938;47.098;15.474;2022-07-23T05:36:16;13.00;;;12.00;;
11761;SDS011;5938;47.098;15.474;2022-07-23T05:40:20;14.97;;;13.37;;
11761;SDS011;5938;47.098;15.474;2022-07-23T05:44:25;15.33;;;14.03;;
11761;SDS011;5938;47.098;15.474;2022-07-23T05:48:35;15.83;;;14.50;;
11761;SDS011;5938;47.098;15.474;2022-07-23T05:52:47;17.60;;;16.20;;
11761;SDS011;5938;47.098;15.474;2022-07-23T05:56:51;20.23;;;18.53;;
11761;SDS011;5938;47.098;15.474;2022-07-23T06:00:56;17.93;;;16.47;;
11761;SDS011;5938;47.098;15.474;2022-07-23T06:05:00;17.43;;;16.03;;
11761;SDS011;5938;47.098;15.474;2022-07-23T06:09:03;18.53;;;16.67;;
11761;SDS011;5938;47.098;15.474;2022-07-23T06:13:15;18.73;;;17.23;;
11761;SDS011;5938;47.098;15.474;2022-07-23T06:17:23;17.63;;;16.23;;
11761;SDS011;5938;47.098;15.474;2022-07-23T06:21:29;16.13;;;14.77;;
11761;SDS011;5938;47.098;15.474;2022-07-23T06:25:47;17.47;;;15.87;;
11761;SDS011;5938;47.098;15.474;2022-07-23T06:29:51;17.40;;;15.80;;
11761;SDS011;5938;47.098;15.474;2022-07-23T06:33:57;17.10;;;15.70;;
11761;SDS011;5938;47.098;15.474;2022-07-23T06:38:01;17.50;;;16.10;;
11761;SDS011;5938;47.098;15.474;2022-07-23T06:42:09;17.80;;;16.40;;
11761;SDS011;5938;47.098;15.474;2022-07-23T06:46:14;15.20;;;14.00;;
11761;SDS011;5938;47.098;15.474;2022-07-23T06:50:22;16.97;;;15.67;;
11761;SDS011;5938;47.098;15.474;2022-07-23T06:54:25;17.53;;;16.13;;
11761;SDS011;5938;47.098;15.474;2022-07-23T06:58:29;16.40;;;15.00;;
11761;SDS011;5938;47.098;15.474;2022-07-23T07:02:33;18.03;;;16.33;;
11761;SDS011;5938;47.098;15.474;2022-07-23T07:06:38;16.30;;;14.70;;
11761;SDS011;5938;47.098;15.474;2022-07-23T07:10:41;16.03;;;14.83;;
11761;SDS011;5938;47.098;15.474;2022-07-23T07:14:45;17.43;;;15.90;;
11761;SDS011;5938;47.098;15.474;2022-07-23T07:18:48;16.90;;;15.40;;
11761;SDS011;5938;47.098;15.474;2022-07-23T07:22:54;16.40;;;15.10;;
11761;SDS011;5938;47.098;15.474;2022-07-23T07:26:57;15.20;;;13.80;;
11761;SDS011;5938;47.098;15.474;2022-07-23T07:31:01;17.27;;;15.70;;
11761;SDS011;5938;47.098;15.474;2022-07-23T07:35:05;16.33;;;15.00;;
11761;SDS011;5938;47.098;15.474;2022-07-23T07:39:10;15.57;;;14.40;;
11761;SDS011;5938;47.098;15.474;2022-07-23T07:43:13;15.30;;;14.00;;
11761;SDS011;5938;47.098;15.474;2022-07-23T07:47:17;15.90;;;14.70;;
11761;SDS011;5938;47.098;15.474;2022-07-23T07:51:21;15.57;;;14.27;;
11761;SDS011;5938;47.098;15.474;2022-07-23T07:55:27;16.57;;;15.27;;
11761;SDS011;5938;47.098;15.474;2022-07-23T07:59:32;16.07;;;14.80;;
11761;SDS011;5938;47.098;15.474;2022-07-23T08:03:36;16.20;;;15.00;;
11761;SDS011;5938;47.098;15.474;2022-07-23T08:07:40;13.83;;;12.83;;
11761;SDS011;5938;47.098;15.474;2022-07-23T08:11:45;12.80;;;11.77;;
11761;SDS011;5938;47.098;15.474;2022-07-23T08:15:49;11.90;;;11.00;;
11761;SDS011;5938;47.098;15.474;2022-07-23T08:19:54;11.50;;;10.80;;
11761;SDS011;5938;47.098;15.474;2022-07-23T08:23:58;13.30;;;12.20;;
11761;SDS011;5938;47.098;15.474;2022-07-23T08:28:04;12.80;;;11.80;;
11761;SDS011;5938;47.098;15.474;2022-07-23T08:32:09;11.93;;;11.07;;
11761;SDS011;5938;47.098;15.474;2022-07-23T08:36:34;12.73;;;11.57;;
11761;SDS011;5938;47.098;15.474;2022-07-23T08:40:38;13.40;;;12.20;;
11761;SDS011;5938;47.098;15.474;2022-07-23T08:44:46;13.90;;;12.87;;
11761;SDS011;5938;47.098;15.474;2022-07-23T08:48:50;12.63;;;11.63;;
11761;SDS011;5938;47.098;15.474;2022-07-23T08:53:05;11.70;;;10.63;;
11761;SDS011;5938;47.098;15.474;2022-07-23T08:57:11;11.23;;;10.43;;
11761;SDS011;5938;47.098;15.474;2022-07-23T09:01:17;11.73;;;10.83;;
11761;SDS011;5938;47.098;15.474;2022-07-23T09:05:21;11.33;;;10.53;;
11761;SDS011;5938;47.098;15.474;2022-07-23T09:09:24;9.90;;;9.10;;
11761;SDS011;5938;47.098;15.474;2022-07-23T09:13:33;11.97;;;11.07;;
11761;SDS011;5938;47.098;15.474;2022-07-23T09:17:41;10.40;;;9.70;;
11761;SDS011;5938;47.098;15.474;2022-07-23T09:21:45;11.27;;;10.43;;
11761;SDS011;5938;47.098;15.474;2022-07-23T09:25:51;10.43;;;9.73;;
11761;SDS011;5938;47.098;15.474;2022-07-23T09:29:55;10.90;;;10.00;;
11761;SDS011;5938;47.098;15.474;2022-07-23T09:34:10;11.57;;;10.57;;
11761;SDS011;5938;47.098;15.474;2022-07-23T09:38:16;11.10;;;10.00;;
11761;SDS011;5938;47.098;15.474;2022-07-23T09:42:22;10.87;;;10.07;;
11761;SDS011;5938;47.098;15.474;2022-07-23T09:46:27;10.60;;;9.83;;
11761;SDS011;5938;47.098;15.474;2022-07-23T09:50:32;11.23;;;10.20;;
11761;SDS011;5938;47.098;15.474;2022-07-23T09:54:36;11.67;;;10.50;;
11761;SDS011;5938;47.098;15.474;2022-07-23T09:58:41;11.13;;;10.23;;
11761;SDS011;5938;47.098;15.474;2022-07-23T10:02:59;9.43;;;8.77;;
11761;SDS011;5938;47.098;15.474;2022-07-23T10:07:14;9.90;;;9.10;;
11761;SDS011;5938;47.098;15.474;2022-07-23T10:11:23;9.63;;;8.93;;
11761;SDS011;5938;47.098;15.474;2022-07-23T10:15:26;9.47;;;8.87;;
11761;SDS011;5938;47.098;15.474;2022-07-23T10:19:30;10.20;;;9.50;;
11761;SDS011;5938;47.098;15.474;2022-07-23T10:23:37;9.53;;;8.83;;
11761;SDS011;5938;47.098;15.474;2022-07-23T10:27:53;9.07;;;7.90;;
11761;SDS011;5938;47.098;15.474;2022-07-23T10:32:14;9.83;;;9.17;;
11761;SDS011;5938;47.098;15.474;2022-07-23T10:36:23;9.30;;;8.70;;
11761;SDS011;5938;47.098;15.474;2022-07-23T10:40:36;10.30;;;9.50;;
11761;SDS011;5938;47.098;15.474;2022-07-23T10:44:41;10.60;;;9.70;;
11761;SDS011;5938;47.098;15.474;2022-07-23T10:48:45;9.60;;;8.90;;
11761;SDS011;5938;47.098;15.474;2022-07-23T10:53:17;10.17;;;9.27;;
11761;SDS011;5938;47.098;15.474;2022-07-23T10:57:22;9.93;;;9.23;;
11761;SDS011;5938;47.098;15.474;2022-07-23T11:01:34;10.73;;;9.93;;
11761;SDS011;5938;47.098;15.474;2022-07-23T11:05:40;10.53;;;9.83;;
11761;SDS011;5938;47.098;15.474;2022-07-23T11:09:44;11.07;;;10.17;;
11761;SDS011;5938;47.098;15.474;2022-07-23T11:13:52;9.73;;;8.93;;
11761;SDS011;5938;47.098;15.474;2022-07-23T11:17:59;10.60;;;9.80;;
11761;SDS011;5938;47.098;15.474;2022-07-23T11:22:03;9.73;;;9.03;;
11761;SDS011;5938;47.098;15.474;2022-07-23T11:26:06;10.10;;;9.40;;
11761;SDS011;5938;47.098;15.474;2022-07-23T11:30:36;11.37;;;10.50;;
11761;SDS011;5938;47.098;15.474;2022-07-23T11:34:42;9.73;;;9.03;;
11761;SDS011;5938;47.098;15.474;2022-07-23T11:38:47;10.17;;;9.57;;
11761;SDS011;5938;47.098;15.474;2022-07-23T11:42:55;9.80;;;9.10;;
11761;SDS011;5938;47.098;15.474;2022-07-23T11:47:03;11.27;;;10.47;;
11761;SDS011;5938;47.098;15.474;2022-07-23T11:51:11;8.90;;;8.33;;
11761;SDS011;5938;47.098;15.474;2022-07-23T11:55:31;10.27;;;9.57;;
11761;SDS011;5938;47.098;15.474;2022-07-23T11:59:35;9.40;;;8.70;;
11761;SDS011;5938;47.098;15.474;2022-07-23T12:03:50;8.70;;;8.10;;
11761;SDS011;5938;47.098;15.474;2022-07-23T12:07:55;9.47;;;8.87;;
11761;SDS011;5938;47.098;15.474;2022-07-23T12:11:59;9.90;;;9.20;;
11761;SDS011;5938;47.098;15.474;2022-07-23T12:16:03;9.20;;;8.47;;
11761;SDS011;5938;47.098;15.474;2022-07-23T12:20:10;8.33;;;7.67;;
11761;SDS011;5938;47.098;15.474;2022-07-23T12:24:16;8.30;;;7.70;;
11761;SDS011;5938;47.098;15.474;2022-07-23T12:28:20;8.53;;;7.87;;
11761;SDS011;5938;47.098;15.474;2022-07-23T12:32:25;8.07;;;7.50;;
11761;SDS011;5938;47.098;15.474;2022-07-23T12:36:38;7.63;;;7.07;;
11761;SDS011;5938;47.098;15.474;2022-07-23T12:40:43;7.43;;;7.00;;
11761;SDS011;5938;47.098;15.474;2022-07-23T12:45:04;8.63;;;7.83;;
11761;SDS011;5938;47.098;15.474;2022-07-23T12:49:09;7.80;;;7.00;;
11761;SDS011;5938;47.098;15.474;2022-07-23T12:53:15;7.80;;;7.30;;
11761;SDS011;5938;47.098;15.474;2022-07-23T13:01:53;7.73;;;7.27;;
11761;SDS011;5938;47.098;15.474;2022-07-23T13:06:00;7.53;;;7.03;;
11761;SDS011;5938;47.098;15.474;2022-07-23T13:10:06;8.77;;;7.90;;
11761;SDS011;5938;47.098;15.474;2022-07-23T13:14:14;7.67;;;7.20;;
11761;SDS011;5938;47.098;15.474;2022-07-23T13:18:22;7.53;;;7.10;;
11761;SDS011;5938;47.098;15.474;2022-07-23T13:22:34;9.50;;;8.80;;
11761;SDS011;5938;47.098;15.474;2022-07-23T13:26:40;8.60;;;8.00;;
11761;SDS011;5938;47.098;15.474;2022-07-23T13:30:44;8.10;;;7.60;;
11761;SDS011;5938;47.098;15.474;2022-07-23T13:34:51;8.60;;;8.10;;
11761;SDS011;5938;47.098;15.474;2022-07-23T13:38:57;8.10;;;7.47;;
11761;SDS011;5938;47.098;15.474;2022-07-23T13:43:12;8.40;;;7.80;;
11761;SDS011;5938;47.098;15.474;2022-07-23T13:47:23;9.40;;;8.80;;
11761;SDS011;5938;47.098;15.474;2022-07-23T13:51:27;8.57;;;7.97;;
11761;SDS011;5938;47.098;15.474;2022-07-23T13:55:31;9.00;;;8.30;;
11761;SDS011;5938;47.098;15.474;2022-07-23T13:59:37;8.67;;;8.07;;
11761;SDS011;5938;47.098;15.474;2022-07-23T14:03:40;8.17;;;7.67;;
11761;SDS011;5938;47.098;15.474;2022-07-23T14:07:44;7.80;;;7.03;;
11761;SDS011;5938;47.098;15.474;2022-07-23T14:11:48;8.40;;;7.80;;
11761;SDS011;5938;47.098;15.474;2022-07-23T14:15:54;8.20;;;7.60;;
11761;SDS011;5938;47.098;15.474;2022-07-23T14:19:58;8.00;;;7.40;;
11761;SDS011;5938;47.098;15.474;2022-07-23T14:24:02;7.43;;;6.93;;
11761;SDS011;5938;47.098;15.474;2022-07-23T14:28:07;7.47;;;6.77;;
11761;SDS011;5938;47.098;15.474;2022-07-23T14:32:11;7.50;;;7.00;;
11761;SDS011;5938;47.098;15.474;2022-07-23T14:36:15;7.33;;;6.90;;
11761;SDS011;5938;47.098;15.474;2022-07-23T14:40:19;7.30;;;6.83;;
11761;SDS011;5938;47.098;15.474;2022-07-23T14:44:23;7.40;;;6.90;;
11761;SDS011;5938;47.098;15.474;2022-07-23T14:48:29;8.17;;;7.67;;
11761;SDS011;5938;47.098;15.474;2022-07-23T14:52:35;6.70;;;6.30;;
11761;SDS011;5938;47.098;15.474;2022-07-23T14:56:38;7.40;;;6.97;;
11761;SDS011;5938;47.098;15.474;2022-07-23T15:00:44;7.77;;;7.17;;
11761;SDS011;5938;47.098;15.474;2022-07-23T15:04:51;7.50;;;7.00;;
11761;SDS011;5938;47.098;15.474;2022-07-23T15:09:02;6.40;;;6.00;;
11761;SDS011;5938;47.098;15.474;2022-07-23T15:13:07;7.80;;;7.27;;
11761;SDS011;5938;47.098;15.474;2022-07-23T15:17:10;7.33;;;6.73;;
11761;SDS011;5938;47.098;15.474;2022-07-23T15:21:16;7.57;;;7.03;;
11761;SDS011;5938;47.098;15.474;2022-07-23T15:25:21;7.37;;;6.87;;
11761;SDS011;5938;47.098;15.474;2022-07-23T15:29:25;7.77;;;7.17;;
11761;SDS011;5938;47.098;15.474;2022-07-23T15:33:29;6.73;;;6.33;;
11761;SDS011;5938;47.098;15.474;2022-07-23T15:37:35;7.03;;;6.60;;
11761;SDS011;5938;47.098;15.474;2022-07-23T15:41:39;6.10;;;5.70;;
11761;SDS011;5938;47.098;15.474;2022-07-23T15:45:44;5.70;;;5.40;;
11761;SDS011;5938;47.098;15.474;2022-07-23T15:49:47;7.53;;;7.03;;
11761;SDS011;5938;47.098;15.474;2022-07-23T15:53:53;8.40;;;7.90;;
11761;SDS011;5938;47.098;15.474;2022-07-23T15:57:56;9.27;;;8.47;;
11761;SDS011;5938;47.098;15.474;2022-07-23T16:02:00;8.77;;;8.17;;
11761;SDS011;5938;47.098;15.474;2022-07-23T16:06:04;8.47;;;7.83;;
11761;SDS011;5938;47.098;15.474;2022-07-23T16:10:19;9.70;;;9.00;;
11761;SDS011;5938;47.098;15.474;2022-07-23T16:14:23;8.80;;;8.10;;
11761;SDS011;5938;47.098;15.474;2022-07-23T16:18:26;8.00;;;7.47;;
11761;SDS011;5938;47.098;15.474;2022-07-23T16:22:32;7.30;;;6.80;;
11761;SDS011;5938;47.098;15.474;2022-07-23T16:26:38;7.70;;;7.20;;
11761;SDS011;5938;47.098;15.474;2022-07-23T16:30:43;11.93;;;7.60;;
11761;SDS011;5938;47.098;15.474;2022-07-23T16:34:47;7.70;;;7.10;;
11761;SDS011;5938;47.098;15.474;2022-07-23T16:38:52;8.07;;;7.47;;
11761;SDS011;5938;47.098;15.474;2022-07-23T16:42:58;8.17;;;7.37;;
11761;SDS011;5938;47.098;15.474;2022-07-23T16:47:06;7.83;;;7.23;;
11761;SDS011;5938;47.098;15.474;2022-07-23T16:51:10;8.30;;;7.60;;
11761;SDS011;5938;47.098;15.474;2022-07-23T16:55:15;8.20;;;7.60;;
11761;SDS011;5938;47.098;15.474;2022-07-23T16:59:20;8.53;;;7.77;;
11761;SDS011;5938;47.098;15.474;2022-07-23T17:03:25;7.77;;;7.10;;
11761;SDS011;5938;47.098;15.474;2022-07-23T17:07:31;7.57;;;6.97;;
11761;SDS011;5938;47.098;15.474;2022-07-23T17:11:35;7.30;;;6.80;;
11761;SDS011;5938;47.098;15.474;2022-07-23T17:15:41;7.73;;;6.90;;
11761;SDS011;5938;47.098;15.474;2022-07-23T17:19:45;7.67;;;6.97;;
11761;SDS011;5938;47.098;15.474;2022-07-23T17:23:50;9.10;;;7.50;;
11761;SDS011;5938;47.098;15.474;2022-07-23T17:27:57;7.87;;;7.27;;
11761;SDS011;5938;47.098;15.474;2022-07-23T17:32:06;7.53;;;6.80;;
11761;SDS011;5938;47.098;15.474;2022-07-23T17:36:10;7.50;;;6.90;;
11761;SDS011;5938;47.098;15.474;2022-07-23T17:40:14;7.93;;;7.33;;
11761;SDS011;5938;47.098;15.474;2022-07-23T17:44:17;7.40;;;6.80;;
11761;SDS011;5938;47.098;15.474;2022-07-23T17:48:25;7.43;;;6.73;;
11761;SDS011;5938;47.098;15.474;2022-07-23T17:52:29;7.03;;;6.43;;
11761;SDS011;5938;47.098;15.474;2022-07-23T17:56:54;6.37;;;5.87;;
11761;SDS011;5938;47.098;15.474;2022-07-23T18:01:06;6.97;;;6.40;;
11761;SDS011;5938;47.098;15.474;2022-07-23T18:05:13;7.73;;;7.03;;
11761;SDS011;5938;47.098;15.474;2022-07-23T18:09:21;7.53;;;6.83;;
11761;SDS011;5938;47.098;15.474;2022-07-23T18:13:26;8.20;;;7.50;;
11761;SDS011;5938;47.098;15.474;2022-07-23T18:17:31;7.23;;;6.63;;
11761;SDS011;5938;47.098;15.474;2022-07-23T18:21:41;8.00;;;7.30;;
11761;SDS011;5938;47.098;15.474;2022-07-23T18:25:47;6.87;;;6.27;;
11761;SDS011;5938;47.098;15.474;2022-07-23T18:29:53;8.00;;;7.40;;
11761;SDS011;5938;47.098;15.474;2022-07-23T18:34:00;8.03;;;6.90;;
11761;SDS011;5938;47.098;15.474;2022-07-23T18:38:09;7.20;;;6.60;;
11761;SDS011;5938;47.098;15.474;2022-07-23T18:42:21;6.53;;;6.03;;
11761;SDS011;5938;47.098;15.474;2022-07-23T18:46:29;8.90;;;8.10;;
11761;SDS011;5938;47.098;15.474;2022-07-23T18:50:36;8.00;;;7.30;;
11761;SDS011;5938;47.098;15.474;2022-07-23T18:54:47;7.80;;;7.00;;
11761;SDS011;5938;47.098;15.474;2022-07-23T18:58:54;7.13;;;6.53;;
11761;SDS011;5938;47.098;15.474;2022-07-23T19:02:58;9.67;;;8.77;;
11761;SDS011;5938;47.098;15.474;2022-07-23T19:07:10;8.27;;;7.57;;
11761;SDS011;5938;47.098;15.474;2022-07-23T19:11:17;9.03;;;8.23;;
11761;SDS011;5938;47.098;15.474;2022-07-23T19:15:29;8.17;;;7.50;;
11761;SDS011;5938;47.098;15.474;2022-07-23T19:19:33;7.60;;;6.90;;
11761;SDS011;5938;47.098;15.474;2022-07-23T19:23:37;8.70;;;7.90;;
11761;SDS011;5938;47.098;15.474;2022-07-23T19:27:49;8.33;;;7.63;;
11761;SDS011;5938;47.098;15.474;2022-07-23T19:31:53;7.60;;;7.00;;
11761;SDS011;5938;47.098;15.474;2022-07-23T19:35:57;7.73;;;6.60;;
11761;SDS011;5938;47.098;15.474;2022-07-23T19:40:03;8.83;;;7.50;;
11761;SDS011;5938;47.098;15.474;2022-07-23T19:44:10;9.10;;;8.20;;
11761;SDS011;5938;47.098;15.474;2022-07-23T19:48:18;8.90;;;8.10;;
11761;SDS011;5938;47.098;15.474;2022-07-23T19:52:22;9.03;;;8.10;;
11761;SDS011;5938;47.098;15.474;2022-07-23T19:56:31;8.77;;;7.87;;
11761;SDS011;5938;47.098;15.474;2022-07-23T20:00:36;9.73;;;8.80;;
11761;SDS011;5938;47.098;15.474;2022-07-23T20:04:41;10.97;;;9.10;;
11761;SDS011;5938;47.098;15.474;2022-07-23T20:08:51;13.67;;;9.23;;
11761;SDS011;5938;47.098;15.474;2022-07-23T20:12:54;12.17;;;8.07;;
11761;SDS011;5938;47.098;15.474;2022-07-23T20:17:00;6.70;;;6.00;;
11761;SDS011;5938;47.098;15.474;2022-07-23T20:21:03;18.23;;;7.13;;
11761;SDS011;5938;47.098;15.474;2022-07-23T20:25:07;12.40;;;7.07;;
11761;SDS011;5938;47.098;15.474;2022-07-23T20:29:12;9.43;;;5.07;;
11761;SDS011;5938;47.098;15.474;2022-07-23T20:33:18;7.80;;;4.93;;
11761;SDS011;5938;47.098;15.474;2022-07-23T20:37:23;5.43;;;4.00;;
11761;SDS011;5938;47.098;15.474;2022-07-23T20:41:27;5.43;;;4.87;;
11761;SDS011;5938;47.098;15.474;2022-07-23T20:45:30;6.60;;;4.50;;
11761;SDS011;5938;47.098;15.474;2022-07-23T20:49:36;4.93;;;4.30;;
11761;SDS011;5938;47.098;15.474;2022-07-23T20:53:45;120.70;;;13.20;;
11761;SDS011;5938;47.098;15.474;2022-07-23T20:57:49;83.80;;;14.00;;
11761;SDS011;5938;47.098;15.474;2022-07-23T21:01:52;7.07;;;5.30;;
11761;SDS011;5938;47.098;15.474;2022-07-23T21:05:57;6.10;;;4.70;;
11761;SDS011;5938;47.098;15.474;2022-07-23T21:10:02;7.93;;;5.00;;
11761;SDS011;5938;47.098;15.474;2022-07-23T21:14:06;13.63;;;6.90;;
11761;SDS011;5938;47.098;15.474;2022-07-23T21:18:10;65.40;;;11.40;;
11761;SDS011;5938;47.098;15.474;2022-07-23T21:22:15;6.30;;;4.87;;
11761;SDS011;5938;47.098;15.474;2022-07-23T21:26:20;37.97;;;8.70;;
11761;SDS011;5938;47.098;15.474;2022-07-23T21:30:33;21.07;;;5.90;;
11761;SDS011;5938;47.098;15.474;2022-07-23T21:34:36;11.07;;;4.97;;
11761;SDS011;5938;47.098;15.474;2022-07-23T21:38:41;12.13;;;4.90;;
11761;SDS011;5938;47.098;15.474;2022-07-23T21:43:01;85.40;;;14.80;;
11761;SDS011;5938;47.098;15.474;2022-07-23T21:47:06;20.70;;;6.00;;
11761;SDS011;5938;47.098;15.474;2022-07-23T21:51:12;7.83;;;5.03;;
11761;SDS011;5938;47.098;15.474;2022-07-23T21:55:24;8.07;;;3.77;;
11761;SDS011;5938;47.098;15.474;2022-07-23T21:59:47;5.00;;;4.50;;
11761;SDS011;5938;47.098;15.474;2022-07-23T22:04:28;6.10;;;4.53;;
11761;SDS011;5938;47.098;15.474;2022-07-23T22:08:40;6.23;;;4.80;;
11761;SDS011;5938;47.098;15.474;2022-07-23T22:16:57;6.43;;;4.40;;
11761;SDS011;5938;47.098;15.474;2022-07-23T22:21:02;7.10;;;5.03;;
11761;SDS011;5938;47.098;15.474;2022-07-23T22:25:29;4.20;;;3.83;;
11761;SDS011;5938;47.098;15.474;2022-07-23T22:29:36;4.50;;;3.90;;
11761;SDS011;5938;47.098;15.474;2022-07-23T22:33:40;5.03;;;4.47;;
11761;SDS011;5938;47.098;15.474;2022-07-23T22:37:44;5.30;;;4.63;;
11761;SDS011;5938;47.098;15.474;2022-07-23T22:41:48;5.77;;;4.47;;
11761;SDS011;5938;47.098;15.474;2022-07-23T22:45:52;4.90;;;4.27;;
11761;SDS011;5938;47.098;15.474;2022-07-23T22:49:56;4.73;;;4.10;;
11761;SDS011;5938;47.098;15.474;2022-07-23T22:54:07;4.50;;;3.90;;
11761;SDS011;5938;47.098;15.474;2022-07-23T22:58:10;6.30;;;4.90;;
11761;SDS011;5938;47.098;15.474;2022-07-23T23:02:16;5.43;;;4.60;;
11761;SDS011;5938;47.098;15.474;2022-07-23T23:06:20;5.83;;;4.13;;
11761;SDS011;5938;47.098;15.474;2022-07-23T23:10:23;5.63;;;4.37;;
11761;SDS011;5938;47.098;15.474;2022-07-23T23:14:27;6.23;;;4.47;;
11761;SDS011;5938;47.098;15.474;2022-07-23T23:18:32;8.97;;;5.63;;
11761;SDS011;5938;47.098;15.474;2022-07-23T23:22:35;5.50;;;5.00;;
11761;SDS011;5938;47.098;15.474;2022-07-23T23:26:46;5.53;;;4.63;;
11761;SDS011;5938;47.098;15.474;2022-07-23T23:30:49;6.27;;;4.87;;
11761;SDS011;5938;47.098;15.474;2022-07-23T23:34:54;6.13;;;5.50;;
11761;SDS011;5938;47.098;15.474;2022-07-23T23:38:57;9.57;;;6.13;;
11761;SDS011;5938;47.098;15.474;2022-07-23T23:43:02;9.10;;;6.37;;
11761;SDS011;5938;47.098;15.474;2022-07-23T23:47:06;6.03;;;5.47;;
11761;SDS011;5938;47.098;15.474;2022-07-23T23:51:10;6.50;;;4.90;;
11761;SDS011;5938;47.098;15.474;2022-07-23T23:55:14;5.73;;;4.93;;
11761;SDS011;5938;47.098;15.474;2022-07-23T23:59:17;6.73;;;5.97;;
